Messwerte Ondangwa

Temperatur

Temperatur
°C
1614484800 6.00 6.00
1614488400 7.00 7.00
1614492000 8.00 8.00 25
1614495600 9.00 9.00 27
1614499200 10.00 10.00
1614502800 11.00 11.00 31
1614506400 12.00 12.00 32
1614510000 13.00 13.00 35
1614513600 14.00 14.00 34
1614517200 15.00 15.00
1614520800 16.00 16.00
1614524400 17.00 17.00
1614528000 18.00 18.00 32
1614531600 19.00 19.00
1614535200 20.00 20.00 28
1614538800 21.00 21.00 26
1614542400 22.00 22.00 26
1614546000 23.00 23.00 25
1614549600 0.00 0.00 24
1614553200 1.00 1.00
1614556800 2.00 2.00 23
1614560400 3.00 3.00 23
1614564000 4.00 4.00 23
1614567600 5.00 5.00 21

Aktuellste Messwerte

Temperatur
21 °C
Feuchtigkeit
75 %
Wind
5 km/hWindrichtung: Nordost
Luftdruck
1014 hPa
Messzeit: 1. März 2021, 5.00Datenquelle: METAR

Weitere Messstationen in der Nähe

Messstation Temperatur Entfernung
Okaukuejo 20 °C 139 km
Otjiwarongo 17 °C 287 km
Grootfontein 15 °C 292 km

Wind

Windrichtung Böen Mittelwind
° km/h km/h
1614484800 6.00 5.00 - 6.00
1614488400 7.00 6.00 - 7.00
1614492000 8.00 7.00 - 8.00 90° 5
1614495600 9.00 8.00 - 9.00 90° 15
1614499200 10.00 9.00 - 10.00
1614502800 11.00 10.00 - 11.00 20° 20
1614506400 12.00 11.00 - 12.00 40° 20
1614510000 13.00 12.00 - 13.00 50° 15
1614513600 14.00 13.00 - 14.00 100° 5
1614517200 15.00 14.00 - 15.00
1614520800 16.00 15.00 - 16.00
1614524400 17.00 16.00 - 17.00
1614528000 18.00 17.00 - 18.00 350° 10
1614531600 19.00 18.00 - 19.00
1614535200 20.00 19.00 - 20.00 90° 5
1614538800 21.00 20.00 - 21.00 80° 5
1614542400 22.00 21.00 - 22.00 100° 5
1614546000 23.00 22.00 - 23.00 80° 5
1614549600 0.00 23.00 - 0.00 100° 5
1614553200 1.00 0.00 - 1.00
1614556800 2.00 1.00 - 2.00 70° 5
1614560400 3.00 2.00 - 3.00 80° 10
1614564000 4.00 3.00 - 4.00 80° 10
1614567600 5.00 4.00 - 5.00 50° 5

Ihre Wetterstation

Fehlt Ihre Wetterstation auf unserem Portal?

Schreiben Sie an network@meteonews.ch